sensor_id;sensor_type;location;lat;lon;timestamp;temperature;humidity
45339;DHT22;31071;51.478;5.710;2022-08-01T00:00:32;19.70;99.90
45339;DHT22;31071;51.478;5.710;2022-08-01T00:02:57;19.70;99.90
45339;DHT22;31071;51.478;5.710;2022-08-01T00:05:23;19.70;99.90
45339;DHT22;31071;51.478;5.710;2022-08-01T00:07:50;19.80;99.90
45339;DHT22;31071;51.478;5.710;2022-08-01T00:10:16;19.70;99.90
45339;DHT22;31071;51.478;5.710;2022-08-01T00:12:43;19.70;99.90
45339;DHT22;31071;51.478;5.710;2022-08-01T00:15:11;19.70;99.90
45339;DHT22;31071;51.478;5.710;2022-08-01T00:17:37;19.70;99.90
45339;DHT22;31071;51.478;5.710;2022-08-01T00:20:06;19.70;99.90
45339;DHT22;31071;51.478;5.710;2022-08-01T00:22:33;19.70;99.90
45339;DHT22;31071;51.478;5.710;2022-08-01T00:24:59;19.70;99.90
45339;DHT22;31071;51.478;5.710;2022-08-01T00:27:25;19.70;99.90
45339;DHT22;31071;51.478;5.710;2022-08-01T00:29:51;19.70;99.90
45339;DHT22;31071;51.478;5.710;2022-08-01T00:32:16;19.70;99.90
45339;DHT22;31071;51.478;5.710;2022-08-01T00:34:42;19.70;99.90
45339;DHT22;31071;51.478;5.710;2022-08-01T00:37:08;19.70;99.90
45339;DHT22;31071;51.478;5.710;2022-08-01T00:39:33;19.70;99.90
45339;DHT22;31071;51.478;5.710;2022-08-01T00:42:12;19.70;99.90
45339;DHT22;31071;51.478;5.710;2022-08-01T00:44:38;19.70;99.90
45339;DHT22;31071;51.478;5.710;2022-08-01T00:47:04;19.70;99.90
45339;DHT22;31071;51.478;5.710;2022-08-01T00:49:30;19.70;99.90
45339;DHT22;31071;51.478;5.710;2022-08-01T00:51:56;19.70;99.90
45339;DHT22;31071;51.478;5.710;2022-08-01T00:54:24;19.70;99.90
45339;DHT22;31071;51.478;5.710;2022-08-01T00:56:50;19.70;99.90
45339;DHT22;31071;51.478;5.710;2022-08-01T00:59:17;19.70;99.90
45339;DHT22;31071;51.478;5.710;2022-08-01T01:01:43;19.70;99.90
45339;DHT22;31071;51.478;5.710;2022-08-01T01:04:08;19.70;99.90
45339;DHT22;31071;51.478;5.710;2022-08-01T01:07:05;19.70;99.90
45339;DHT22;31071;51.478;5.710;2022-08-01T01:09:45;19.70;99.90
45339;DHT22;31071;51.478;5.710;2022-08-01T01:12:35;19.60;99.90
45339;DHT22;31071;51.478;5.710;2022-08-01T01:15:08;19.70;99.90
45339;DHT22;31071;51.478;5.710;2022-08-01T01:20:33;19.70;99.90
45339;DHT22;31071;51.478;5.710;2022-08-01T01:23:29;19.70;99.90
45339;DHT22;31071;51.478;5.710;2022-08-01T01:29:13;19.70;99.90
45339;DHT22;31071;51.478;5.710;2022-08-01T01:31:59;19.60;99.90
45339;DHT22;31071;51.478;5.710;2022-08-01T01:34:28;19.70;99.90
45339;DHT22;31071;51.478;5.710;2022-08-01T01:36:58;19.70;99.90
45339;DHT22;31071;51.478;5.710;2022-08-01T01:39:25;19.70;99.90
45339;DHT22;31071;51.478;5.710;2022-08-01T01:41:53;19.60;99.90
45339;DHT22;31071;51.478;5.710;2022-08-01T01:44:20;19.60;99.90
45339;DHT22;31071;51.478;5.710;2022-08-01T01:46:48;19.60;99.90
45339;DHT22;31071;51.478;5.710;2022-08-01T01:49:16;19.50;99.90
45339;DHT22;31071;51.478;5.710;2022-08-01T01:51:46;19.50;99.90
45339;DHT22;31071;51.478;5.710;2022-08-01T01:54:12;19.50;99.90
45339;DHT22;31071;51.478;5.710;2022-08-01T01:56:39;19.50;99.90
45339;DHT22;31071;51.478;5.710;2022-08-01T01:59:16;19.50;99.90
45339;DHT22;31071;51.478;5.710;2022-08-01T02:01:44;19.50;99.90
45339;DHT22;31071;51.478;5.710;2022-08-01T02:04:11;19.50;99.90
45339;DHT22;31071;51.478;5.710;2022-08-01T02:06:38;19.50;99.90
45339;DHT22;31071;51.478;5.710;2022-08-01T02:09:04;19.40;99.90
45339;DHT22;31071;51.478;5.710;2022-08-01T02:11:31;19.40;99.90
45339;DHT22;31071;51.478;5.710;2022-08-01T02:13:59;19.50;99.90
45339;DHT22;31071;51.478;5.710;2022-08-01T02:16:34;19.40;99.90
45339;DHT22;31071;51.478;5.710;2022-08-01T02:19:00;19.50;99.90
45339;DHT22;31071;51.478;5.710;2022-08-01T02:21:40;19.50;99.90
45339;DHT22;31071;51.478;5.710;2022-08-01T02:24:21;19.50;99.90
45339;DHT22;31071;51.478;5.710;2022-08-01T02:26:52;19.40;99.90
45339;DHT22;31071;51.478;5.710;2022-08-01T02:29:24;19.40;99.90
45339;DHT22;31071;51.478;5.710;2022-08-01T02:31:54;19.40;99.90
45339;DHT22;31071;51.478;5.710;2022-08-01T02:34:21;19.40;99.90
45339;DHT22;31071;51.478;5.710;2022-08-01T02:36:48;19.40;99.90
45339;DHT22;31071;51.478;5.710;2022-08-01T02:39:16;19.40;99.90
45339;DHT22;31071;51.478;5.710;2022-08-01T02:41:47;19.30;99.90
45339;DHT22;31071;51.478;5.710;2022-08-01T02:44:20;19.30;99.90
45339;DHT22;31071;51.478;5.710;2022-08-01T02:46:56;19.30;99.90
45339;DHT22;31071;51.478;5.710;2022-08-01T02:49:24;19.30;99.90
45339;DHT22;31071;51.478;5.710;2022-08-01T02:51:53;19.40;99.90
45339;DHT22;31071;51.478;5.710;2022-08-01T02:54:21;19.40;99.90
45339;DHT22;31071;51.478;5.710;2022-08-01T02:56:48;19.40;99.90
45339;DHT22;31071;51.478;5.710;2022-08-01T02:59:19;19.40;99.90
45339;DHT22;31071;51.478;5.710;2022-08-01T03:01:46;19.30;99.90
45339;DHT22;31071;51.478;5.710;2022-08-01T03:04:14;19.40;99.90
45339;DHT22;31071;51.478;5.710;2022-08-01T03:06:40;19.30;99.90
45339;DHT22;31071;51.478;5.710;2022-08-01T03:09:07;19.40;99.90
45339;DHT22;31071;51.478;5.710;2022-08-01T03:11:35;19.30;99.90
45339;DHT22;31071;51.478;5.710;2022-08-01T03:14:05;19.30;99.90
45339;DHT22;31071;51.478;5.710;2022-08-01T03:16:33;19.30;99.90
45339;DHT22;31071;51.478;5.710;2022-08-01T03:19:00;19.30;99.90
45339;DHT22;31071;51.478;5.710;2022-08-01T03:21:28;19.30;99.90
45339;DHT22;31071;51.478;5.710;2022-08-01T03:23:56;19.30;99.90
45339;DHT22;31071;51.478;5.710;2022-08-01T03:26:26;19.30;99.90
45339;DHT22;31071;51.478;5.710;2022-08-01T03:28:55;19.30;99.90
45339;DHT22;31071;51.478;5.710;2022-08-01T03:31:22;19.30;99.90
45339;DHT22;31071;51.478;5.710;2022-08-01T03:33:49;19.30;99.90
45339;DHT22;31071;51.478;5.710;2022-08-01T03:36:15;19.30;99.90
45339;DHT22;31071;51.478;5.710;2022-08-01T03:38:45;19.30;99.90
45339;DHT22;31071;51.478;5.710;2022-08-01T03:41:15;19.30;99.90
45339;DHT22;31071;51.478;5.710;2022-08-01T03:43:48;19.20;99.90
45339;DHT22;31071;51.478;5.710;2022-08-01T03:46:32;19.30;99.90
45339;DHT22;31071;51.478;5.710;2022-08-01T03:49:00;19.30;99.90
45339;DHT22;31071;51.478;5.710;2022-08-01T03:51:29;19.20;99.90
45339;DHT22;31071;51.478;5.710;2022-08-01T03:53:56;19.20;99.90
45339;DHT22;31071;51.478;5.710;2022-08-01T03:56:23;19.20;99.90
45339;DHT22;31071;51.478;5.710;2022-08-01T03:58:49;19.30;99.90
45339;DHT22;31071;51.478;5.710;2022-08-01T04:01:16;19.20;99.90
45339;DHT22;31071;51.478;5.710;2022-08-01T04:03:43;19.20;99.90
45339;DHT22;31071;51.478;5.710;2022-08-01T04:06:14;19.20;99.90
45339;DHT22;31071;51.478;5.710;2022-08-01T04:08:41;19.20;99.90
45339;DHT22;31071;51.478;5.710;2022-08-01T04:11:08;19.20;99.90
45339;DHT22;31071;51.478;5.710;2022-08-01T04:13:34;19.20;99.90
45339;DHT22;31071;51.478;5.710;2022-08-01T04:15:59;19.20;99.90
45339;DHT22;31071;51.478;5.710;2022-08-01T04:18:25;19.20;99.90
45339;DHT22;31071;51.478;5.710;2022-08-01T04:20:51;19.20;99.90
45339;DHT22;31071;51.478;5.710;2022-08-01T04:23:18;19.20;99.90
45339;DHT22;31071;51.478;5.710;2022-08-01T04:25:46;19.20;99.90
45339;DHT22;31071;51.478;5.710;2022-08-01T04:28:13;19.20;99.90
45339;DHT22;31071;51.478;5.710;2022-08-01T04:30:44;19.20;99.90
45339;DHT22;31071;51.478;5.710;2022-08-01T04:33:14;19.20;99.90
45339;DHT22;31071;51.478;5.710;2022-08-01T04:35:43;19.20;99.90
45339;DHT22;31071;51.478;5.710;2022-08-01T04:38:11;19.20;99.90
45339;DHT22;31071;51.478;5.710;2022-08-01T04:40:38;19.20;99.90
45339;DHT22;31071;51.478;5.710;2022-08-01T04:43:05;19.20;99.90
45339;DHT22;31071;51.478;5.710;2022-08-01T04:45:31;19.10;99.90
45339;DHT22;31071;51.478;5.710;2022-08-01T04:47:58;19.10;99.90
45339;DHT22;31071;51.478;5.710;2022-08-01T04:50:25;19.20;99.90
45339;DHT22;31071;51.478;5.710;2022-08-01T04:52:50;19.20;99.90
45339;DHT22;31071;51.478;5.710;2022-08-01T04:55:17;19.20;99.90
45339;DHT22;31071;51.478;5.710;2022-08-01T04:57:44;19.10;99.90
45339;DHT22;31071;51.478;5.710;2022-08-01T05:00:11;19.10;99.90
45339;DHT22;31071;51.478;5.710;2022-08-01T05:02:37;19.00;99.90
45339;DHT22;31071;51.478;5.710;2022-08-01T05:05:03;19.10;99.90
45339;DHT22;31071;51.478;5.710;2022-08-01T05:07:31;19.10;99.90
45339;DHT22;31071;51.478;5.710;2022-08-01T05:09:57;19.10;99.90
45339;DHT22;31071;51.478;5.710;2022-08-01T05:12:22;19.20;99.90
45339;DHT22;31071;51.478;5.710;2022-08-01T05:14:48;19.30;99.90
45339;DHT22;31071;51.478;5.710;2022-08-01T05:17:15;19.30;99.90
45339;DHT22;31071;51.478;5.710;2022-08-01T05:19:41;19.30;99.90
45339;DHT22;31071;51.478;5.710;2022-08-01T05:22:08;19.30;99.90
45339;DHT22;31071;51.478;5.710;2022-08-01T05:24:36;19.30;99.90
45339;DHT22;31071;51.478;5.710;2022-08-01T05:27:05;19.30;99.90
45339;DHT22;31071;51.478;5.710;2022-08-01T05:29:33;19.30;99.90
45339;DHT22;31071;51.478;5.710;2022-08-01T05:31:58;19.30;99.90
45339;DHT22;31071;51.478;5.710;2022-08-01T05:34:24;19.40;99.90
45339;DHT22;31071;51.478;5.710;2022-08-01T05:36:50;19.40;99.90
45339;DHT22;31071;51.478;5.710;2022-08-01T05:39:16;19.50;99.90
45339;DHT22;31071;51.478;5.710;2022-08-01T05:41:42;19.50;99.90
45339;DHT22;31071;51.478;5.710;2022-08-01T05:44:08;19.50;99.90
45339;DHT22;31071;51.478;5.710;2022-08-01T05:46:33;19.50;99.90
45339;DHT22;31071;51.478;5.710;2022-08-01T05:49:00;19.50;99.90
45339;DHT22;31071;51.478;5.710;2022-08-01T05:51:26;19.50;99.90
45339;DHT22;31071;51.478;5.710;2022-08-01T05:53:52;19.50;99.90
45339;DHT22;31071;51.478;5.710;2022-08-01T05:56:18;19.70;99.90
45339;DHT22;31071;51.478;5.710;2022-08-01T05:58:44;19.70;99.90
45339;DHT22;31071;51.478;5.710;2022-08-01T06:01:09;19.70;99.90
45339;DHT22;31071;51.478;5.710;2022-08-01T06:03:35;19.70;99.90
45339;DHT22;31071;51.478;5.710;2022-08-01T06:06:01;19.70;99.90
45339;DHT22;31071;51.478;5.710;2022-08-01T06:08:26;19.70;99.90
45339;DHT22;31071;51.478;5.710;2022-08-01T06:10:52;19.70;99.90
45339;DHT22;31071;51.478;5.710;2022-08-01T06:13:18;19.80;99.90
45339;DHT22;31071;51.478;5.710;2022-08-01T06:15:47;19.90;99.90
45339;DHT22;31071;51.478;5.710;2022-08-01T06:18:13;19.90;99.90
45339;DHT22;31071;51.478;5.710;2022-08-01T06:20:39;19.90;99.90
45339;DHT22;31071;51.478;5.710;2022-08-01T06:23:05;19.90;99.90
45339;DHT22;31071;51.478;5.710;2022-08-01T06:25:30;19.90;99.90
45339;DHT22;31071;51.478;5.710;2022-08-01T06:27:56;19.90;99.90
45339;DHT22;31071;51.478;5.710;2022-08-01T06:30:22;19.90;99.90
45339;DHT22;31071;51.478;5.710;2022-08-01T06:32:47;19.90;99.90
45339;DHT22;31071;51.478;5.710;2022-08-01T06:35:14;19.90;99.90
45339;DHT22;31071;51.478;5.710;2022-08-01T06:37:46;19.90;99.90
45339;DHT22;31071;51.478;5.710;2022-08-01T06:40:12;19.90;99.90
45339;DHT22;31071;51.478;5.710;2022-08-01T06:42:38;19.90;99.90
45339;DHT22;31071;51.478;5.710;2022-08-01T06:45:05;20.00;99.90
45339;DHT22;31071;51.478;5.710;2022-08-01T06:47:31;20.10;99.90
45339;DHT22;31071;51.478;5.710;2022-08-01T06:49:57;20.20;99.90
45339;DHT22;31071;51.478;5.710;2022-08-01T06:52:22;20.30;99.90
45339;DHT22;31071;51.478;5.710;2022-08-01T06:54:48;20.30;99.90
45339;DHT22;31071;51.478;5.710;2022-08-01T06:57:14;20.30;99.90
45339;DHT22;31071;51.478;5.710;2022-08-01T06:59:39;20.10;99.90
45339;DHT22;31071;51.478;5.710;2022-08-01T07:02:05;19.80;99.90
45339;DHT22;31071;51.478;5.710;2022-08-01T07:04:31;19.90;99.90
45339;DHT22;31071;51.478;5.710;2022-08-01T07:06:57;20.00;99.90
45339;DHT22;31071;51.478;5.710;2022-08-01T07:09:23;20.10;99.90
45339;DHT22;31071;51.478;5.710;2022-08-01T07:11:48;20.20;99.90
45339;DHT22;31071;51.478;5.710;2022-08-01T07:14:16;20.20;99.90
45339;DHT22;31071;51.478;5.710;2022-08-01T07:16:52;20.30;99.90
45339;DHT22;31071;51.478;5.710;2022-08-01T07:19:18;20.50;99.90
45339;DHT22;31071;51.478;5.710;2022-08-01T07:21:44;20.70;99.90
45339;DHT22;31071;51.478;5.710;2022-08-01T07:24:11;21.10;99.90
45339;DHT22;31071;51.478;5.710;2022-08-01T07:26:38;21.00;99.90
45339;DHT22;31071;51.478;5.710;2022-08-01T07:29:04;20.90;99.90
45339;DHT22;31071;51.478;5.710;2022-08-01T07:31:30;20.80;99.90
45339;DHT22;31071;51.478;5.710;2022-08-01T07:33:56;20.90;99.90
45339;DHT22;31071;51.478;5.710;2022-08-01T07:36:23;20.70;99.90
45339;DHT22;31071;51.478;5.710;2022-08-01T07:38:49;20.80;99.90
45339;DHT22;31071;51.478;5.710;2022-08-01T07:41:14;21.00;99.90
45339;DHT22;31071;51.478;5.710;2022-08-01T07:43:40;21.20;99.90
45339;DHT22;31071;51.478;5.710;2022-08-01T07:46:06;21.00;99.90
45339;DHT22;31071;51.478;5.710;2022-08-01T07:48:32;21.00;99.90
45339;DHT22;31071;51.478;5.710;2022-08-01T07:50:58;21.30;99.90
45339;DHT22;31071;51.478;5.710;2022-08-01T07:53:24;21.60;99.90
45339;DHT22;31071;51.478;5.710;2022-08-01T07:55:50;21.80;99.90
45339;DHT22;31071;51.478;5.710;2022-08-01T07:58:16;21.70;99.90
45339;DHT22;31071;51.478;5.710;2022-08-01T08:00:42;21.70;99.90
45339;DHT22;31071;51.478;5.710;2022-08-01T08:03:08;21.70;99.90
45339;DHT22;31071;51.478;5.710;2022-08-01T08:05:33;21.60;99.90
45339;DHT22;31071;51.478;5.710;2022-08-01T08:08:07;21.70;99.90
45339;DHT22;31071;51.478;5.710;2022-08-01T08:10:33;21.90;99.90
45339;DHT22;31071;51.478;5.710;2022-08-01T08:13:00;21.90;99.90
45339;DHT22;31071;51.478;5.710;2022-08-01T08:15:27;22.00;99.90
45339;DHT22;31071;51.478;5.710;2022-08-01T08:17:59;22.00;99.90
45339;DHT22;31071;51.478;5.710;2022-08-01T08:20:25;22.10;99.90
45339;DHT22;31071;51.478;5.710;2022-08-01T08:22:53;22.00;99.90
45339;DHT22;31071;51.478;5.710;2022-08-01T08:25:18;22.10;99.90
45339;DHT22;31071;51.478;5.710;2022-08-01T08:27:47;22.20;99.90
45339;DHT22;31071;51.478;5.710;2022-08-01T08:30:13;22.40;99.90
45339;DHT22;31071;51.478;5.710;2022-08-01T08:32:39;22.70;99.90
45339;DHT22;31071;51.478;5.710;2022-08-01T08:35:08;22.80;99.90
45339;DHT22;31071;51.478;5.710;2022-08-01T08:37:36;22.80;99.90
45339;DHT22;31071;51.478;5.710;2022-08-01T08:40:03;22.90;99.90
45339;DHT22;31071;51.478;5.710;2022-08-01T08:42:29;22.80;99.90
45339;DHT22;31071;51.478;5.710;2022-08-01T08:44:55;22.90;99.90
45339;DHT22;31071;51.478;5.710;2022-08-01T08:47:25;23.10;99.90
45339;DHT22;31071;51.478;5.710;2022-08-01T08:49:54;23.00;99.90
45339;DHT22;31071;51.478;5.710;2022-08-01T08:52:21;23.10;99.90
45339;DHT22;31071;51.478;5.710;2022-08-01T08:54:48;22.90;99.90
45339;DHT22;31071;51.478;5.710;2022-08-01T08:57:14;22.70;99.90
45339;DHT22;31071;51.478;5.710;2022-08-01T08:59:42;22.60;99.90
45339;DHT22;31071;51.478;5.710;2022-08-01T09:02:10;22.40;99.90
45339;DHT22;31071;51.478;5.710;2022-08-01T09:04:36;22.30;99.90
45339;DHT22;31071;51.478;5.710;2022-08-01T09:07:04;22.40;99.90
45339;DHT22;31071;51.478;5.710;2022-08-01T09:09:30;22.70;99.90
45339;DHT22;31071;51.478;5.710;2022-08-01T09:11:56;22.90;99.90
45339;DHT22;31071;51.478;5.710;2022-08-01T09:14:23;23.20;99.90
45339;DHT22;31071;51.478;5.710;2022-08-01T09:17:01;23.50;99.90
45339;DHT22;31071;51.478;5.710;2022-08-01T09:19:38;23.70;99.90
45339;DHT22;31071;51.478;5.710;2022-08-01T09:22:05;23.50;99.90
45339;DHT22;31071;51.478;5.710;2022-08-01T09:24:32;23.30;99.90
45339;DHT22;31071;51.478;5.710;2022-08-01T09:26:59;23.10;99.90
45339;DHT22;31071;51.478;5.710;2022-08-01T09:29:27;23.10;99.90
45339;DHT22;31071;51.478;5.710;2022-08-01T09:31:53;23.20;99.90
45339;DHT22;31071;51.478;5.710;2022-08-01T09:34:26;23.60;99.90
45339;DHT22;31071;51.478;5.710;2022-08-01T09:36:54;23.70;99.90
45339;DHT22;31071;51.478;5.710;2022-08-01T09:39:31;24.00;99.90
45339;DHT22;31071;51.478;5.710;2022-08-01T09:41:59;24.00;99.90
45339;DHT22;31071;51.478;5.710;2022-08-01T09:44:42;24.20;99.90
45339;DHT22;31071;51.478;5.710;2022-08-01T09:47:08;24.60;99.00
45339;DHT22;31071;51.478;5.710;2022-08-01T09:49:36;24.80;99.00
45339;DHT22;31071;51.478;5.710;2022-08-01T09:52:19;24.70;98.60
45339;DHT22;31071;51.478;5.710;2022-08-01T09:55:20;24.40;98.60
45339;DHT22;31071;51.478;5.710;2022-08-01T09:57:56;24.10;99.90
45339;DHT22;31071;51.478;5.710;2022-08-01T10:00:23;24.30;99.80
45339;DHT22;31071;51.478;5.710;2022-08-01T10:02:48;24.90;99.90
45339;DHT22;31071;51.478;5.710;2022-08-01T10:05:14;25.30;97.90
45339;DHT22;31071;51.478;5.710;2022-08-01T10:07:58;25.80;97.20
45339;DHT22;31071;51.478;5.710;2022-08-01T10:10:24;26.30;94.50
45339;DHT22;31071;51.478;5.710;2022-08-01T10:12:51;26.00;94.40
45339;DHT22;31071;51.478;5.710;2022-08-01T10:15:18;25.60;95.20
45339;DHT22;31071;51.478;5.710;2022-08-01T10:17:53;25.40;96.00
45339;DHT22;31071;51.478;5.710;2022-08-01T10:20:21;25.10;96.70
45339;DHT22;31071;51.478;5.710;2022-08-01T10:22:49;24.90;97.30
45339;DHT22;31071;51.478;5.710;2022-08-01T10:25:16;24.70;97.80
45339;DHT22;31071;51.478;5.710;2022-08-01T10:27:44;24.70;97.40
45339;DHT22;31071;51.478;5.710;2022-08-01T10:30:13;24.90;98.50
45339;DHT22;31071;51.478;5.710;2022-08-01T10:32:39;25.50;98.60
45339;DHT22;31071;51.478;5.710;2022-08-01T10:35:08;25.70;98.00
45339;DHT22;31071;51.478;5.710;2022-08-01T10:37:46;25.20;98.80
45339;DHT22;31071;51.478;5.710;2022-08-01T10:40:13;25.30;98.40
45339;DHT22;31071;51.478;5.710;2022-08-01T10:42:43;25.40;98.60
45339;DHT22;31071;51.478;5.710;2022-08-01T10:45:10;25.60;98.00
45339;DHT22;31071;51.478;5.710;2022-08-01T10:50:33;26.50;96.10
45339;DHT22;31071;51.478;5.710;2022-08-01T10:53:37;26.70;95.50
45339;DHT22;31071;51.478;5.710;2022-08-01T10:56:03;26.40;94.60
45339;DHT22;31071;51.478;5.710;2022-08-01T10:58:37;25.90;94.80
45339;DHT22;31071;51.478;5.710;2022-08-01T11:06:51;27.10;94.50
45339;DHT22;31071;51.478;5.710;2022-08-01T11:09:24;28.10;92.70
45339;DHT22;31071;51.478;5.710;2022-08-01T11:14:31;28.90;91.10
45339;DHT22;31071;51.478;5.710;2022-08-01T11:20:15;27.50;91.00
45339;DHT22;31071;51.478;5.710;2022-08-01T11:30:47;25.70;94.60
45339;DHT22;31071;51.478;5.710;2022-08-01T11:33:15;26.20;94.50
45339;DHT22;31071;51.478;5.710;2022-08-01T11:38:36;26.30;93.90
45339;DHT22;31071;51.478;5.710;2022-08-01T11:41:23;25.80;94.60
45339;DHT22;31071;51.478;5.710;2022-08-01T11:44:05;26.30;94.80
45339;DHT22;31071;51.478;5.710;2022-08-01T11:49:44;25.20;96.90
45339;DHT22;31071;51.478;5.710;2022-08-01T11:52:17;24.50;97.90
45339;DHT22;31071;51.478;5.710;2022-08-01T11:54:50;24.00;98.70
45339;DHT22;31071;51.478;5.710;2022-08-01T11:57:21;23.70;99.30
45339;DHT22;31071;51.478;5.710;2022-08-01T11:59:55;23.40;99.90
45339;DHT22;31071;51.478;5.710;2022-08-01T12:02:28;23.50;99.90
45339;DHT22;31071;51.478;5.710;2022-08-01T12:04:59;24.50;98.50
45339;DHT22;31071;51.478;5.710;2022-08-01T12:07:27;26.20;95.70
45339;DHT22;31071;51.478;5.710;2022-08-01T12:09:59;28.20;91.50
45339;DHT22;31071;51.478;5.710;2022-08-01T12:12:27;28.50;90.20
45339;DHT22;31071;51.478;5.710;2022-08-01T12:14:55;29.40;88.30
45339;DHT22;31071;51.478;5.710;2022-08-01T12:17:28;30.30;86.30
45339;DHT22;31071;51.478;5.710;2022-08-01T12:19:54;30.10;83.80
45339;DHT22;31071;51.478;5.710;2022-08-01T12:22:22;30.10;82.90
45339;DHT22;31071;51.478;5.710;2022-08-01T12:24:48;28.90;85.80
45339;DHT22;31071;51.478;5.710;2022-08-01T12:27:30;28.50;86.90
45339;DHT22;31071;51.478;5.710;2022-08-01T12:29:56;27.90;87.80
45339;DHT22;31071;51.478;5.710;2022-08-01T12:32:30;27.40;87.80
45339;DHT22;31071;51.478;5.710;2022-08-01T12:35:01;26.70;90.40
45339;DHT22;31071;51.478;5.710;2022-08-01T12:37:27;26.10;91.20
45339;DHT22;31071;51.478;5.710;2022-08-01T12:39:52;26.20;91.40
45339;DHT22;31071;51.478;5.710;2022-08-01T12:42:18;26.20;91.30
45339;DHT22;31071;51.478;5.710;2022-08-01T12:44:48;25.90;91.20
45339;DHT22;31071;51.478;5.710;2022-08-01T12:47:15;25.10;92.60
45339;DHT22;31071;51.478;5.710;2022-08-01T12:49:43;25.00;93.00
45339;DHT22;31071;51.478;5.710;2022-08-01T12:52:10;25.30;92.60
45339;DHT22;31071;51.478;5.710;2022-08-01T12:57:26;26.50;90.50
45339;DHT22;31071;51.478;5.710;2022-08-01T13:00:23;26.60;90.80
45339;DHT22;31071;51.478;5.710;2022-08-01T13:03:01;26.80;90.60
45339;DHT22;31071;51.478;5.710;2022-08-01T13:05:27;26.90;90.80
45339;DHT22;31071;51.478;5.710;2022-08-01T13:07:53;26.40;90.50
45339;DHT22;31071;51.478;5.710;2022-08-01T13:10:29;26.70;91.10
45339;DHT22;31071;51.478;5.710;2022-08-01T13:12:57;26.90;91.10
45339;DHT22;31071;51.478;5.710;2022-08-01T13:15:43;26.40;90.40
45339;DHT22;31071;51.478;5.710;2022-08-01T13:18:28;26.40;91.00
45339;DHT22;31071;51.478;5.710;2022-08-01T13:21:12;27.20;89.10
45339;DHT22;31071;51.478;5.710;2022-08-01T13:23:42;28.30;84.50
45339;DHT22;31071;51.478;5.710;2022-08-01T13:26:44;28.20;85.30
45339;DHT22;31071;51.478;5.710;2022-08-01T13:29:12;28.40;83.60
45339;DHT22;31071;51.478;5.710;2022-08-01T13:31:39;28.00;84.30
45339;DHT22;31071;51.478;5.710;2022-08-01T13:34:05;27.50;85.40
45339;DHT22;31071;51.478;5.710;2022-08-01T13:36:32;27.30;86.20
45339;DHT22;31071;51.478;5.710;2022-08-01T13:38:58;27.20;86.30
45339;DHT22;31071;51.478;5.710;2022-08-01T13:41:43;27.20;86.10
45339;DHT22;31071;51.478;5.710;2022-08-01T13:44:09;26.70;86.60
45339;DHT22;31071;51.478;5.710;2022-08-01T13:46:36;25.70;89.50
45339;DHT22;31071;51.478;5.710;2022-08-01T13:49:02;25.70;90.40
45339;DHT22;31071;51.478;5.710;2022-08-01T13:51:28;26.40;88.70
45339;DHT22;31071;51.478;5.710;2022-08-01T13:53:53;27.30;85.70
45339;DHT22;31071;51.478;5.710;2022-08-01T13:56:19;27.60;83.90
45339;DHT22;31071;51.478;5.710;2022-08-01T13:58:45;27.50;83.70
45339;DHT22;31071;51.478;5.710;2022-08-01T14:01:11;28.10;84.30
45339;DHT22;31071;51.478;5.710;2022-08-01T14:03:37;28.00;84.40
45339;DHT22;31071;51.478;5.710;2022-08-01T14:06:03;27.80;82.50
45339;DHT22;31071;51.478;5.710;2022-08-01T14:08:29;27.20;84.40
45339;DHT22;31071;51.478;5.710;2022-08-01T14:10:54;26.90;86.10
45339;DHT22;31071;51.478;5.710;2022-08-01T14:13:23;28.20;81.60
45339;DHT22;31071;51.478;5.710;2022-08-01T14:15:48;29.10;79.50
45339;DHT22;31071;51.478;5.710;2022-08-01T14:18:15;28.30;80.50
45339;DHT22;31071;51.478;5.710;2022-08-01T14:20:41;27.40;84.10
45339;DHT22;31071;51.478;5.710;2022-08-01T14:23:06;27.10;84.50
45339;DHT22;31071;51.478;5.710;2022-08-01T14:25:32;26.80;85.20
45339;DHT22;31071;51.478;5.710;2022-08-01T14:27:58;26.50;87.30
45339;DHT22;31071;51.478;5.710;2022-08-01T14:30:23;26.60;87.00
45339;DHT22;31071;51.478;5.710;2022-08-01T14:32:49;27.10;83.80
45339;DHT22;31071;51.478;5.710;2022-08-01T14:35:14;27.30;83.10
45339;DHT22;31071;51.478;5.710;2022-08-01T14:37:46;27.50;82.00
45339;DHT22;31071;51.478;5.710;2022-08-01T14:40:11;27.40;81.50
45339;DHT22;31071;51.478;5.710;2022-08-01T14:42:38;27.50;82.10
45339;DHT22;31071;51.478;5.710;2022-08-01T14:45:05;27.20;82.20
45339;DHT22;31071;51.478;5.710;2022-08-01T14:47:35;27.10;82.80
45339;DHT22;31071;51.478;5.710;2022-08-01T14:50:00;26.90;83.00
45339;DHT22;31071;51.478;5.710;2022-08-01T14:52:26;26.30;85.30
45339;DHT22;31071;51.478;5.710;2022-08-01T14:54:51;25.70;85.60
45339;DHT22;31071;51.478;5.710;2022-08-01T14:57:17;25.70;85.30
45339;DHT22;31071;51.478;5.710;2022-08-01T14:59:46;25.90;85.30
45339;DHT22;31071;51.478;5.710;2022-08-01T15:02:12;26.30;83.60
45339;DHT22;31071;51.478;5.710;2022-08-01T15:04:42;26.40;83.20
45339;DHT22;31071;51.478;5.710;2022-08-01T15:07:15;26.20;86.20
45339;DHT22;31071;51.478;5.710;2022-08-01T15:09:42;26.60;84.00
45339;DHT22;31071;51.478;5.710;2022-08-01T15:12:08;26.80;83.70
45339;DHT22;31071;51.478;5.710;2022-08-01T15:14:34;26.80;79.60
45339;DHT22;31071;51.478;5.710;2022-08-01T15:17:22;26.50;81.20
45339;DHT22;31071;51.478;5.710;2022-08-01T15:19:51;26.00;83.50
45339;DHT22;31071;51.478;5.710;2022-08-01T15:22:17;25.50;86.20
45339;DHT22;31071;51.478;5.710;2022-08-01T15:24:43;25.30;85.90
45339;DHT22;31071;51.478;5.710;2022-08-01T15:27:21;25.90;85.20
45339;DHT22;31071;51.478;5.710;2022-08-01T15:29:47;25.90;81.50
45339;DHT22;31071;51.478;5.710;2022-08-01T15:32:13;25.90;82.00
45339;DHT22;31071;51.478;5.710;2022-08-01T15:34:40;25.60;85.50
45339;DHT22;31071;51.478;5.710;2022-08-01T15:37:06;25.80;79.80
45339;DHT22;31071;51.478;5.710;2022-08-01T15:39:33;25.80;79.30
45339;DHT22;31071;51.478;5.710;2022-08-01T15:42:00;25.70;79.30
45339;DHT22;31071;51.478;5.710;2022-08-01T15:44:27;25.80;80.60
45339;DHT22;31071;51.478;5.710;2022-08-01T15:46:52;26.20;80.00
45339;DHT22;31071;51.478;5.710;2022-08-01T15:49:18;26.20;79.40
45339;DHT22;31071;51.478;5.710;2022-08-01T15:51:48;26.40;79.70
45339;DHT22;31071;51.478;5.710;2022-08-01T15:54:13;26.50;79.60
45339;DHT22;31071;51.478;5.710;2022-08-01T15:56:39;26.40;80.00
45339;DHT22;31071;51.478;5.710;2022-08-01T15:59:05;26.10;81.20
45339;DHT22;31071;51.478;5.710;2022-08-01T16:01:30;26.20;80.90
45339;DHT22;31071;51.478;5.710;2022-08-01T16:03:57;26.20;82.80
45339;DHT22;31071;51.478;5.710;2022-08-01T16:06:30;26.20;82.80
45339;DHT22;31071;51.478;5.710;2022-08-01T16:08:56;26.60;81.20
45339;DHT22;31071;51.478;5.710;2022-08-01T16:11:22;26.70;78.50
45339;DHT22;31071;51.478;5.710;2022-08-01T16:13:51;26.00;80.10
45339;DHT22;31071;51.478;5.710;2022-08-01T16:16:17;25.80;80.80